createdAt,value
2022-10-30T00:01:24.866Z,35.47
2022-10-30T00:03:53.101Z,36.28
2022-10-30T00:06:21.287Z,34.78
2022-10-30T00:08:49.640Z,31.85
2022-10-30T00:11:18.018Z,31.83
2022-10-30T00:13:47.553Z,33.03
2022-10-30T00:16:15.952Z,36.80
2022-10-30T00:18:44.107Z,28.17
2022-10-30T00:21:15.558Z,27.08
2022-10-30T00:23:47.908Z,31.83
2022-10-30T00:26:16.923Z,30.80
2022-10-30T00:28:50.968Z,33.22
2022-10-30T00:31:19.607Z,32.00
2022-10-30T00:33:51.306Z,34.22
2022-10-30T00:36:20.087Z,32.83
2022-10-30T00:38:48.405Z,27.63
2022-10-30T00:41:18.365Z,33.88
2022-10-30T00:43:49.013Z,32.67
2022-10-30T00:46:22.888Z,32.15
2022-10-30T00:48:57.668Z,35.58
2022-10-30T00:51:28.760Z,40.55
2022-10-30T00:54:00.474Z,57.17
2022-10-30T00:56:29.490Z,55.33
2022-10-30T00:59:04.070Z,49.50
2022-10-30T01:01:39.802Z,58.42
2022-10-30T01:04:09.015Z,59.33
2022-10-30T01:06:41.077Z,57.30
2022-10-30T01:09:09.506Z,60.55
2022-10-30T01:11:38.198Z,65.20
2022-10-30T01:14:11.980Z,64.60
2022-10-30T01:17:10.173Z,56.42
2022-10-30T01:19:49.683Z,57.92
2022-10-30T01:22:44.333Z,59.47
2022-10-30T01:25:30.520Z,51.08
2022-10-30T01:28:16.536Z,54.17
2022-10-30T01:31:03.777Z,53.05
2022-10-30T01:33:51.611Z,46.45
2022-10-30T01:36:30.150Z,44.25
2022-10-30T01:39:03.690Z,40.75
2022-10-30T01:41:32.057Z,40.50
2022-10-30T01:44:09.384Z,44.72
2022-10-30T01:46:57.772Z,42.13
2022-10-30T01:49:54.327Z,40.65
2022-10-30T01:52:37.972Z,38.67
2022-10-30T01:55:19.157Z,38.65
2022-10-30T01:57:58.556Z,35.13
2022-10-30T02:00:28.455Z,42.92
2022-10-30T02:02:58.971Z,35.65
2022-10-30T02:05:36.465Z,37.60
2022-10-30T02:08:04.960Z,36.38
2022-10-30T02:10:38.878Z,30.15
2022-10-30T02:13:07.305Z,39.00
2022-10-30T02:15:36.834Z,35.63
2022-10-30T02:18:06.716Z,31.85
2022-10-30T02:20:37.493Z,32.88
2022-10-30T02:23:06.636Z,39.85
2022-10-30T02:25:36.099Z,30.15
2022-10-30T02:28:06.932Z,31.95
2022-10-30T02:30:35.437Z,31.02
2022-10-30T02:33:03.793Z,28.55
2022-10-30T02:35:32.983Z,33.28
2022-10-30T02:38:02.805Z,31.52
2022-10-30T02:40:31.209Z,29.17
2022-10-30T02:42:59.511Z,36.03
2022-10-30T02:45:27.993Z,28.33
2022-10-30T02:47:56.637Z,25.23
2022-10-30T02:50:25.288Z,32.00
2022-10-30T02:52:53.898Z,26.50
2022-10-30T02:55:24.913Z,32.47
2022-10-30T02:57:55.473Z,31.42
2022-10-30T03:00:24.282Z,30.75
2022-10-30T03:02:56.966Z,29.85
2022-10-30T03:05:26.346Z,27.98
2022-10-30T03:07:56.859Z,32.47
2022-10-30T03:10:26.961Z,27.73
2022-10-30T03:12:55.213Z,28.45
2022-10-30T03:15:23.575Z,30.02
2022-10-30T03:17:52.777Z,23.80
2022-10-30T03:20:21.290Z,34.35
2022-10-30T03:22:49.613Z,28.63
2022-10-30T03:25:23.404Z,29.23
2022-10-30T03:27:57.323Z,26.67
2022-10-30T03:30:25.722Z,27.45
2022-10-30T03:32:54.098Z,29.73
2022-10-30T03:35:22.189Z,26.58
2022-10-30T03:37:50.779Z,26.02
2022-10-30T03:40:20.736Z,29.58
2022-10-30T03:42:48.905Z,29.45
2022-10-30T03:45:18.636Z,26.52
2022-10-30T03:47:46.781Z,26.90
2022-10-30T03:50:15.104Z,24.42
2022-10-30T03:52:43.259Z,27.58
2022-10-30T03:55:11.476Z,26.33
2022-10-30T03:57:42.849Z,26.13
2022-10-30T04:00:18.753Z,27.92
2022-10-30T04:03:00.830Z,27.35
2022-10-30T04:05:31.797Z,28.17
2022-10-30T04:08:02.566Z,23.33
2022-10-30T04:10:35.782Z,23.40
2022-10-30T04:13:09.129Z,28.23
2022-10-30T04:15:43.187Z,21.35
2022-10-30T04:18:13.692Z,22.90
2022-10-30T04:20:41.893Z,20.35
2022-10-30T04:23:15.140Z,33.75
2022-10-30T04:25:43.782Z,21.33
2022-10-30T04:28:13.065Z,26.67
2022-10-30T04:30:43.491Z,23.77
2022-10-30T04:33:14.179Z,26.17
2022-10-30T04:35:43.581Z,29.40
2022-10-30T04:38:18.965Z,22.55
2022-10-30T04:40:47.924Z,24.58
2022-10-30T04:43:16.870Z,26.17
2022-10-30T04:45:50.758Z,24.10
2022-10-30T04:48:20.441Z,23.08
2022-10-30T04:50:49.394Z,26.98
2022-10-30T04:53:24.898Z,24.70
2022-10-30T04:55:59.014Z,26.10
2022-10-30T04:58:28.807Z,23.95
2022-10-30T05:01:07.000Z,24.00
2022-10-30T05:03:36.397Z,22.17
2022-10-30T05:06:20.802Z,24.35
2022-10-30T05:08:49.111Z,32.28
2022-10-30T05:11:27.774Z,22.55
2022-10-30T05:13:57.380Z,26.30
2022-10-30T05:16:26.909Z,21.92
2022-10-30T05:18:56.188Z,19.88
2022-10-30T05:21:24.374Z,24.52
2022-10-30T05:23:52.627Z,32.20
2022-10-30T05:26:20.919Z,23.35
2022-10-30T05:28:49.113Z,21.45
2022-10-30T05:31:17.165Z,20.42
2022-10-30T05:34:07.414Z,21.42
2022-10-30T05:36:37.196Z,21.00
2022-10-30T05:39:05.688Z,27.58
2022-10-30T05:41:37.441Z,21.23
2022-10-30T05:44:05.996Z,23.58
2022-10-30T05:46:34.994Z,23.35
2022-10-30T05:49:20.402Z,22.05
2022-10-30T05:51:48.675Z,28.30
2022-10-30T05:54:17.530Z,26.08
2022-10-30T05:57:17.833Z,29.55
2022-10-30T05:59:46.411Z,21.30
2022-10-30T06:02:15.339Z,26.50
2022-10-30T06:04:44.805Z,22.55
2022-10-30T06:07:14.894Z,29.63
2022-10-30T06:09:43.529Z,21.52
2022-10-30T06:12:39.408Z,19.05
2022-10-30T06:15:25.730Z,18.88
2022-10-30T06:17:54.324Z,22.35
2022-10-30T06:20:37.226Z,24.45
2022-10-30T06:23:24.283Z,29.25
2022-10-30T06:26:04.215Z,27.63
2022-10-30T06:28:37.338Z,25.80
2022-10-30T06:31:06.269Z,25.25
2022-10-30T06:33:35.042Z,19.15
2022-10-30T06:36:05.501Z,22.88
2022-10-30T06:38:34.372Z,21.92
2022-10-30T06:41:02.838Z,25.85
2022-10-30T06:43:49.420Z,22.27
2022-10-30T06:46:22.667Z,22.50
2022-10-30T06:48:52.265Z,22.10
2022-10-30T06:51:22.184Z,19.92
2022-10-30T06:53:53.357Z,22.58
2022-10-30T06:56:41.420Z,21.05
2022-10-30T06:59:37.825Z,21.55
2022-10-30T07:02:27.299Z,20.30
2022-10-30T07:04:58.660Z,19.15
2022-10-30T07:07:28.229Z,23.90
2022-10-30T07:09:56.555Z,20.02
2022-10-30T07:12:39.024Z,20.65
2022-10-30T07:15:24.203Z,18.20
2022-10-30T07:18:05.370Z,22.92
2022-10-30T07:20:37.195Z,17.95
2022-10-30T07:23:06.798Z,21.95
2022-10-30T07:25:34.896Z,24.63
2022-10-30T07:28:11.660Z,27.33
2022-10-30T07:30:54.648Z,27.13
2022-10-30T07:33:48.842Z,25.63
2022-10-30T07:36:40.241Z,22.20
2022-10-30T07:39:35.728Z,25.85
2022-10-30T07:42:24.298Z,19.80
2022-10-30T07:48:15.325Z,19.45
2022-10-30T07:50:49.054Z,21.88
2022-10-30T07:53:17.287Z,14.85
2022-10-30T07:55:48.822Z,19.00
2022-10-30T07:58:16.919Z,18.45
2022-10-30T08:01:03.504Z,19.15
2022-10-30T08:03:34.016Z,20.20
2022-10-30T08:06:11.678Z,15.30
2022-10-30T08:08:43.213Z,18.70
2022-10-30T08:11:32.293Z,25.13
2022-10-30T08:14:01.613Z,22.45
2022-10-30T08:16:29.938Z,21.33
2022-10-30T08:18:59.088Z,15.77
2022-10-30T08:21:27.624Z,20.25
2022-10-30T08:24:01.281Z,27.08
2022-10-30T08:26:33.468Z,17.88
2022-10-30T08:29:01.571Z,20.23
2022-10-30T08:31:31.847Z,21.42
2022-10-30T08:34:02.949Z,22.70
2022-10-30T08:36:57.520Z,19.60
2022-10-30T08:39:26.025Z,22.17
2022-10-30T08:42:24.703Z,18.95
2022-10-30T08:44:53.550Z,20.00
2022-10-30T08:47:43.543Z,20.50
2022-10-30T08:50:11.851Z,19.20
2022-10-30T08:52:40.115Z,20.45
2022-10-30T08:55:09.961Z,17.98
2022-10-30T08:57:40.085Z,16.73
2022-10-30T09:00:11.645Z,19.98
2022-10-30T09:03:05.936Z,19.52
2022-10-30T09:06:01.131Z,25.55
2022-10-30T09:08:32.210Z,24.33
2022-10-30T09:11:08.368Z,24.67
2022-10-30T09:13:38.137Z,21.52
2022-10-30T09:16:08.370Z,22.38
2022-10-30T09:18:38.611Z,23.10
2022-10-30T09:21:07.315Z,20.42
2022-10-30T09:23:40.874Z,22.02
2022-10-30T09:26:27.632Z,19.77
2022-10-30T09:29:03.160Z,19.77
2022-10-30T09:31:50.236Z,21.33
2022-10-30T09:34:21.156Z,27.33
2022-10-30T09:37:24.662Z,19.48
2022-10-30T09:39:58.003Z,21.17
2022-10-30T09:42:44.646Z,21.10
2022-10-30T09:46:06.515Z,20.15
2022-10-30T09:52:20.385Z,29.20
2022-10-30T09:55:11.053Z,20.13
2022-10-30T09:57:50.154Z,19.33
2022-10-30T10:00:22.917Z,22.23
2022-10-30T10:03:18.930Z,18.15
2022-10-30T10:06:19.497Z,23.10
2022-10-30T10:09:16.213Z,25.08
2022-10-30T10:12:10.580Z,16.58
2022-10-30T10:14:44.454Z,20.33
2022-10-30T10:17:25.249Z,24.80
2022-10-30T10:20:00.308Z,19.75
2022-10-30T10:22:39.724Z,19.65
2022-10-30T10:25:15.467Z,21.90
2022-10-30T10:28:00.761Z,22.77
2022-10-30T10:30:39.559Z,23.27
2022-10-30T10:33:34.722Z,24.38
2022-10-30T10:36:24.730Z,26.08
2022-10-30T10:39:11.699Z,17.95
2022-10-30T10:41:59.868Z,25.10
2022-10-30T10:44:48.707Z,29.35
2022-10-30T10:47:49.082Z,20.55
2022-10-30T10:50:26.037Z,21.95
2022-10-30T10:53:02.539Z,22.95
2022-10-30T10:55:38.957Z,20.50
2022-10-30T10:58:27.908Z,21.80
2022-10-30T11:00:58.940Z,21.40
2022-10-30T11:03:44.561Z,23.45
2022-10-30T11:06:22.360Z,20.48
2022-10-30T11:08:58.140Z,20.35
2022-10-30T11:11:26.324Z,22.17
2022-10-30T11:13:55.983Z,21.60
2022-10-30T11:16:36.311Z,17.45
2022-10-30T11:19:09.614Z,21.27
2022-10-30T11:21:45.786Z,19.80
2022-10-30T11:24:30.862Z,19.80
2022-10-30T11:27:17.677Z,18.08
2022-10-30T11:29:54.514Z,21.35
2022-10-30T11:32:28.319Z,21.48
2022-10-30T11:35:12.720Z,22.67
2022-10-30T11:37:43.763Z,24.63
2022-10-30T11:40:21.738Z,25.27
2022-10-30T11:42:59.255Z,23.83
2022-10-30T11:45:31.881Z,22.42
2022-10-30T11:48:03.109Z,20.58
2022-10-30T11:50:33.901Z,20.70
2022-10-30T11:53:10.798Z,21.83
2022-10-30T11:55:46.001Z,15.50
2022-10-30T11:58:28.097Z,21.30
2022-10-30T12:01:04.951Z,22.48
2022-10-30T12:03:38.199Z,18.92
2022-10-30T12:06:17.973Z,18.42
2022-10-30T12:09:01.224Z,18.75
2022-10-30T12:11:33.610Z,22.33
2022-10-30T12:14:02.868Z,17.73
2022-10-30T12:16:31.830Z,22.38
2022-10-30T12:19:06.363Z,17.95
2022-10-30T12:21:40.624Z,19.75
2022-10-30T12:24:20.317Z,20.27
2022-10-30T12:26:53.400Z,23.75
2022-10-30T12:29:41.903Z,27.67
2022-10-30T12:32:20.224Z,17.73
2022-10-30T12:35:00.702Z,20.73
2022-10-30T12:37:34.210Z,19.77
2022-10-30T12:40:09.341Z,20.77
2022-10-30T12:42:43.653Z,18.85
2022-10-30T12:45:18.230Z,22.05
2022-10-30T12:47:53.270Z,18.58
2022-10-30T12:50:28.577Z,18.67
2022-10-30T12:53:06.956Z,21.08
2022-10-30T12:55:41.815Z,24.60
2022-10-30T12:58:22.737Z,25.52
2022-10-30T13:00:59.567Z,20.55
2022-10-30T13:03:37.267Z,26.13
2022-10-30T13:06:16.106Z,25.95
2022-10-30T13:09:00.612Z,25.35
2022-10-30T13:11:39.797Z,20.02
2022-10-30T13:14:17.101Z,19.58
2022-10-30T13:16:45.277Z,18.30
2022-10-30T13:19:14.905Z,23.25
2022-10-30T13:21:54.057Z,23.90
2022-10-30T13:24:43.612Z,23.55
2022-10-30T13:27:21.007Z,19.77
2022-10-30T13:29:57.757Z,18.17
2022-10-30T13:32:44.375Z,20.35
2022-10-30T13:35:31.112Z,21.58
2022-10-30T13:38:15.061Z,23.85
2022-10-30T13:40:47.657Z,18.95
2022-10-30T13:43:28.990Z,18.88
2022-10-30T13:46:29.897Z,20.38
2022-10-30T13:49:13.955Z,18.15
2022-10-30T13:51:46.531Z,22.40
2022-10-30T13:54:21.382Z,20.35
2022-10-30T13:56:52.334Z,20.20
2022-10-30T13:59:54.015Z,22.23
2022-10-30T14:02:43.204Z,21.20
2022-10-30T14:05:29.140Z,18.48
2022-10-30T14:08:13.281Z,16.73
2022-10-30T14:10:48.189Z,21.35
2022-10-30T14:13:27.319Z,24.45
2022-10-30T14:16:01.364Z,20.13
2022-10-30T14:19:04.071Z,15.95
2022-10-30T14:21:40.766Z,17.50
2022-10-30T14:24:19.408Z,21.58
2022-10-30T14:26:53.076Z,19.60
2022-10-30T14:29:48.714Z,19.85
2022-10-30T14:32:40.056Z,20.27
2022-10-30T14:35:40.285Z,16.38
2022-10-30T14:38:28.740Z,24.63
2022-10-30T14:41:25.358Z,21.75
2022-10-30T14:44:19.074Z,19.52
2022-10-30T14:47:07.673Z,18.35
2022-10-30T14:49:47.040Z,18.23
2022-10-30T14:52:31.105Z,19.50
2022-10-30T14:55:23.963Z,23.17
2022-10-30T14:58:08.923Z,24.88
2022-10-30T15:00:42.836Z,21.90
2022-10-30T15:03:25.736Z,26.50
2022-10-30T15:05:58.644Z,20.35
2022-10-30T15:08:47.865Z,17.85
2022-10-30T15:12:10.768Z,21.20
2022-10-30T15:14:59.197Z,19.45
2022-10-30T15:17:33.811Z,17.45
2022-10-30T15:20:08.506Z,19.98
2022-10-30T15:22:37.361Z,21.38
2022-10-30T15:25:17.307Z,18.75
2022-10-30T15:27:48.370Z,21.00
2022-10-30T15:30:20.525Z,16.73
2022-10-30T15:32:49.506Z,18.58
2022-10-30T15:35:20.319Z,22.42
2022-10-30T15:38:03.938Z,20.52
2022-10-30T15:40:35.950Z,19.98
2022-10-30T15:43:07.281Z,21.17
2022-10-30T15:45:38.389Z,16.50
2022-10-30T15:48:18.581Z,22.30
2022-10-30T15:50:55.613Z,24.45
2022-10-30T15:53:31.465Z,20.15
2022-10-30T15:56:01.473Z,31.02
2022-10-30T15:58:32.446Z,24.50
2022-10-30T16:01:03.127Z,22.98
2022-10-30T16:03:32.723Z,19.30
2022-10-30T16:06:17.537Z,23.58
2022-10-30T16:08:48.588Z,24.02
2022-10-30T16:11:20.891Z,23.95
2022-10-30T16:13:50.407Z,24.15
2022-10-30T16:16:28.379Z,22.73
2022-10-30T16:19:03.173Z,22.48
2022-10-30T16:21:32.615Z,27.73
2022-10-30T16:24:05.181Z,25.25
2022-10-30T16:26:38.473Z,17.48
2022-10-30T16:29:22.266Z,24.30
2022-10-30T16:31:52.075Z,23.10
2022-10-30T16:34:27.574Z,21.98
2022-10-30T16:36:57.700Z,25.25
2022-10-30T16:39:28.424Z,24.95
2022-10-30T16:42:00.383Z,27.02
2022-10-30T16:44:30.071Z,24.63
2022-10-30T16:47:04.075Z,24.13
2022-10-30T16:49:36.388Z,29.67
2022-10-30T16:52:07.345Z,25.58
2022-10-30T16:54:42.058Z,26.23
2022-10-30T16:57:18.518Z,26.50
2022-10-30T16:59:51.887Z,25.95
2022-10-30T17:02:24.059Z,33.60
2022-10-30T17:04:58.259Z,23.73
2022-10-30T17:07:27.882Z,24.20
2022-10-30T17:09:58.374Z,25.30
2022-10-30T17:12:29.880Z,26.40
2022-10-30T17:15:13.538Z,29.75
2022-10-30T17:17:43.239Z,22.33
2022-10-30T17:20:28.241Z,27.35
2022-10-30T17:23:13.674Z,26.10
2022-10-30T17:25:42.401Z,22.60
2022-10-30T17:28:28.494Z,27.08
2022-10-30T17:30:57.318Z,24.38
2022-10-30T17:33:36.680Z,25.45
2022-10-30T17:36:07.013Z,24.40
2022-10-30T17:38:35.209Z,25.17
2022-10-30T17:41:04.160Z,33.50
2022-10-30T17:43:47.983Z,37.55
2022-10-30T17:46:20.164Z,26.13
2022-10-30T17:48:49.406Z,32.83
2022-10-30T17:51:19.438Z,34.95
2022-10-30T17:53:49.334Z,29.95
2022-10-30T17:56:21.701Z,32.38
2022-10-30T17:58:51.489Z,29.83
2022-10-30T18:01:22.602Z,28.73
2022-10-30T18:03:51.814Z,38.38
2022-10-30T18:06:23.289Z,37.10
2022-10-30T18:08:51.521Z,39.70
2022-10-30T18:11:23.178Z,39.72
2022-10-30T18:13:53.687Z,36.72
2022-10-30T18:16:21.877Z,36.72
2022-10-30T18:18:50.904Z,33.30
2022-10-30T18:21:21.536Z,38.00
2022-10-30T18:23:52.829Z,33.47
2022-10-30T18:26:24.682Z,38.22
2022-10-30T18:28:54.763Z,39.22
2022-10-30T18:31:25.171Z,38.35
2022-10-30T18:33:53.299Z,38.00
2022-10-30T18:36:24.463Z,46.25
2022-10-30T18:38:54.501Z,46.97
2022-10-30T18:41:30.047Z,41.35
2022-10-30T18:43:59.446Z,41.22
2022-10-30T18:46:29.053Z,43.53
2022-10-30T18:48:57.489Z,45.50
2022-10-30T18:51:28.852Z,37.35
2022-10-30T18:53:57.376Z,36.88
2022-10-30T18:56:27.664Z,37.40
2022-10-30T18:59:01.896Z,36.33
2022-10-30T19:01:32.728Z,36.17
2022-10-30T19:04:02.994Z,38.75
2022-10-30T19:06:32.734Z,39.75
2022-10-30T19:09:00.937Z,44.88
2022-10-30T19:11:31.422Z,47.17
2022-10-30T19:14:00.373Z,36.85
2022-10-30T19:16:28.603Z,46.42
2022-10-30T19:18:58.082Z,44.08
2022-10-30T19:21:27.915Z,45.20
2022-10-30T19:23:56.533Z,39.90
2022-10-30T19:26:24.629Z,39.15
2022-10-30T19:28:52.737Z,42.15
2022-10-30T19:31:21.417Z,43.50
2022-10-30T19:33:57.375Z,41.90
2022-10-30T19:36:31.755Z,43.53
2022-10-30T19:39:07.282Z,39.55
2022-10-30T19:41:37.279Z,38.88
2022-10-30T19:44:05.754Z,44.03
2022-10-30T19:46:34.299Z,39.33
2022-10-30T19:49:08.033Z,35.63
2022-10-30T19:51:37.502Z,38.72
2022-10-30T19:54:05.876Z,40.50
2022-10-30T19:56:34.003Z,39.72
2022-10-30T19:59:02.180Z,40.05
2022-10-30T20:01:30.438Z,38.10
2022-10-30T20:03:58.640Z,38.53
2022-10-30T20:06:27.061Z,38.55
2022-10-30T20:08:57.581Z,43.95
2022-10-30T20:11:25.725Z,51.60
2022-10-30T20:13:54.768Z,47.30
2022-10-30T20:16:23.109Z,49.55
2022-10-30T20:18:51.444Z,46.25
2022-10-30T20:21:21.347Z,46.03
2022-10-30T20:23:50.867Z,52.95
2022-10-30T20:26:27.659Z,42.08
2022-10-30T20:28:56.260Z,40.97
2022-10-30T20:31:24.729Z,39.83
2022-10-30T20:33:52.813Z,43.28
2022-10-30T20:36:20.946Z,48.38
2022-10-30T20:38:49.021Z,45.55
2022-10-30T20:41:24.065Z,44.08
2022-10-30T20:43:53.072Z,45.95
2022-10-30T20:46:22.262Z,44.95
2022-10-30T20:48:50.733Z,44.30
2022-10-30T20:51:19.254Z,44.72
2022-10-30T20:53:47.417Z,45.38
2022-10-30T20:56:15.665Z,47.47
2022-10-30T20:58:45.172Z,43.30
2022-10-30T21:01:13.977Z,46.30
2022-10-30T21:03:42.241Z,46.35
2022-10-30T21:06:10.410Z,48.35
2022-10-30T21:08:38.598Z,52.85
2022-10-30T21:11:08.551Z,48.53
2022-10-30T21:13:37.590Z,50.47
2022-10-30T21:16:09.633Z,43.88
2022-10-30T21:18:37.969Z,54.42
2022-10-30T21:21:11.347Z,53.38
2022-10-30T21:23:39.485Z,58.13
2022-10-30T21:26:10.866Z,52.95
2022-10-30T21:28:39.679Z,51.80
2022-10-30T21:31:13.715Z,50.03
2022-10-30T21:33:41.952Z,51.80
2022-10-30T21:36:14.327Z,52.25
2022-10-30T21:38:44.580Z,46.90
2022-10-30T21:41:15.045Z,44.58
2022-10-30T21:43:43.269Z,43.83
2022-10-30T21:46:13.924Z,45.65
2022-10-30T21:48:42.338Z,48.03
2022-10-30T21:51:12.952Z,47.45
2022-10-30T21:53:41.821Z,46.58
2022-10-30T21:56:12.978Z,46.45
2022-10-30T21:58:41.269Z,47.72
2022-10-30T22:01:17.285Z,52.92
2022-10-30T22:03:45.519Z,51.97
2022-10-30T22:06:19.255Z,50.30
2022-10-30T22:08:48.960Z,53.97
2022-10-30T22:11:18.195Z,52.53
2022-10-30T22:13:46.631Z,63.00
2022-10-30T22:16:16.563Z,57.83
2022-10-30T22:18:44.675Z,52.70
2022-10-30T22:21:14.342Z,52.97
2022-10-30T22:23:43.812Z,57.25
2022-10-30T22:26:15.160Z,53.90
2022-10-30T22:28:44.380Z,47.35
2022-10-30T22:31:16.564Z,51.45
2022-10-30T22:33:45.655Z,49.05
2022-10-30T22:36:17.177Z,54.17
2022-10-30T22:38:46.427Z,57.33
2022-10-30T22:41:17.089Z,49.97
2022-10-30T22:43:47.256Z,59.38
2022-10-30T22:46:19.745Z,49.88
2022-10-30T22:48:48.078Z,58.10
2022-10-30T22:51:18.466Z,43.25
2022-10-30T22:53:48.501Z,51.40
2022-10-30T22:56:19.474Z,42.40
2022-10-30T22:58:50.111Z,50.30
2022-10-30T23:01:23.363Z,46.08
2022-10-30T23:03:52.664Z,43.63
2022-10-30T23:06:21.540Z,52.97
2022-10-30T23:08:52.678Z,46.40
2022-10-30T23:11:21.215Z,44.95
2022-10-30T23:13:49.861Z,39.15
2022-10-30T23:16:23.611Z,41.13
2022-10-30T23:18:57.065Z,41.33
2022-10-30T23:21:28.428Z,41.53
2022-10-30T23:23:57.196Z,41.00
2022-10-30T23:26:29.355Z,41.20
2022-10-30T23:28:59.350Z,36.28
2022-10-30T23:31:32.302Z,38.35
2022-10-30T23:34:03.831Z,42.67
2022-10-30T23:36:32.272Z,32.05
2022-10-30T23:39:02.805Z,39.47
2022-10-30T23:41:34.242Z,34.08
2022-10-30T23:44:05.911Z,40.58
2022-10-30T23:46:36.580Z,35.20
2022-10-30T23:49:05.903Z,38.30
2022-10-30T23:51:34.632Z,37.63
2022-10-30T23:54:03.056Z,32.47
2022-10-30T23:56:31.584Z,36.55
2022-10-30T23:58:59.844Z,39.85
